Time;durP1;ratioP1;P1;durP2;ratioP2;P2;SDS_P1;SDS_P2;PMS_P1;PMS_P2;Temp;Humidity;BMP_temperature;BMP_pressure;BME280_temperature;BME280_humidity;BME280_pressure;Samples;Min_cycle;Max_cycle;Signal;HPM_P1;HPM_P2
2023/10/14 00:03:17;;;;;;;33.97;15.07;;;;;;;13.85;100.00;100319.03;5590453;31;34313;-69
2023/10/14 00:06:20;;;;;;;29.83;15.70;;;;;;;13.77;100.00;100314.69;5590735;31;34253;-69
2023/10/14 00:09:24;;;;;;;31.00;15.18;;;;;;;13.72;100.00;100309.09;5576600;31;34288;-69
2023/10/14 00:12:28;;;;;;;30.70;14.80;;;;;;;13.72;100.00;100311.75;5590470;31;35071;-70
2023/10/14 00:15:31;;;;;;;31.40;15.63;;;;;;;13.70;100.00;100308.44;5576636;31;34359;-68
2023/10/14 00:18:34;;;;;;;35.42;15.32;;;;;;;13.92;100.00;100304.78;5590588;31;34578;-69
2023/10/14 00:21:38;;;;;;;36.20;15.77;;;;;;;13.82;100.00;100306.09;5590346;31;35012;-68
2023/10/14 00:24:43;;;;;;;30.37;16.23;;;;;;;13.67;100.00;100298.16;5590219;31;34341;-68
2023/10/14 00:27:46;;;;;;;35.08;15.13;;;;;;;13.67;100.00;100302.66;5590584;31;34541;-68
2023/10/14 00:30:49;;;;;;;38.97;15.90;;;;;;;13.55;100.00;100293.53;5590301;31;34209;-68
2023/10/14 00:33:55;;;;;;;31.90;15.27;;;;;;;13.51;100.00;100301.06;5590203;31;35032;-69
2023/10/14 00:36:58;;;;;;;37.05;16.00;;;;;;;13.45;100.00;100302.66;5590228;31;34369;-69
2023/10/14 00:40:12;;;;;;;33.00;15.60;;;;;;;13.36;100.00;100301.09;5590163;31;35032;-69
2023/10/14 00:43:15;;;;;;;31.98;16.02;;;;;;;13.32;100.00;100296.34;5590080;31;34254;-69
2023/10/14 00:46:18;;;;;;;34.65;15.25;;;;;;;13.29;100.00;100297.53;5589805;31;35205;-69
2023/10/14 00:49:34;;;;;;;33.72;16.20;;;;;;;13.27;100.00;100293.41;5590057;31;34314;-68
2023/10/14 00:52:39;;;;;;;35.83;16.48;;;;;;;13.22;100.00;100285.97;5589772;31;35206;-69
2023/10/14 00:58:51;;;;;;;31.42;15.90;;;;;;;13.18;100.00;100278.53;5590360;31;34399;-69
2023/10/14 01:01:58;;;;;;;29.92;16.15;;;;;;;13.18;100.00;100273.22;5589841;31;34483;-69
2023/10/14 01:05:10;;;;;;;35.88;16.83;;;;;;;13.15;100.00;100266.44;5589895;31;35054;-69
2023/10/14 01:08:13;;;;;;;33.20;16.48;;;;;;;13.12;100.00;100258.00;5589506;31;34331;-69
2023/10/14 01:11:17;;;;;;;39.78;16.50;;;;;;;13.12;100.00;100250.00;5589856;31;34351;-69
2023/10/14 01:14:23;;;;;;;34.95;16.70;;;;;;;13.10;100.00;100244.00;5589734;31;35185;-69
2023/10/14 01:20:40;;;;;;;35.05;17.60;;;;;;;13.06;100.00;100230.25;5589735;31;34309;-69
2023/10/14 01:23:50;;;;;;;32.88;18.85;;;;;;;13.04;100.00;100227.75;5575968;31;34359;-69
2023/10/14 01:27:05;;;;;;;33.78;18.30;;;;;;;13.04;100.00;100230.44;5590055;31;34251;-69
2023/10/14 01:30:13;;;;;;;30.35;18.67;;;;;;;12.99;100.00;100227.50;5589491;31;34977;-69
2023/10/14 01:33:21;;;;;;;31.33;18.25;;;;;;;12.99;100.00;100229.34;5590068;31;35050;-69
2023/10/14 01:36:27;;;;;;;42.78;19.27;;;;;;;12.87;100.00;100220.19;5589391;31;34510;-69
2023/10/14 01:39:30;;;;;;;34.33;18.48;;;;;;;12.86;100.00;100224.69;5589578;31;34542;-69
2023/10/14 01:42:33;;;;;;;32.90;18.10;;;;;;;12.88;100.00;100224.47;5589228;31;34992;-69
2023/10/14 01:46:00;;;;;;;33.15;18.27;;;;;;;13.02;100.00;100216.47;5589505;31;34436;-68
2023/10/14 01:49:10;;;;;;;32.25;17.62;;;;;;;12.99;100.00;100208.84;5589734;31;34281;-69
2023/10/14 01:52:20;;;;;;;33.13;18.15;;;;;;;12.93;100.00;100216.75;5589435;31;34541;-69
2023/10/14 01:55:22;;;;;;;32.78;17.65;;;;;;;12.91;100.00;100203.66;5589431;31;34390;-69
2023/10/14 02:01:35;;;;;;;33.83;17.10;;;;;;;13.46;100.00;100188.88;5589336;31;34558;-69
2023/10/14 02:04:39;;;;;;;36.80;17.80;;;;;;;13.59;100.00;100194.34;5589543;31;34408;-69
2023/10/14 02:07:46;;;;;;;31.05;16.75;;;;;;;13.62;100.00;100179.78;5589367;31;34381;-69
2023/10/14 02:10:50;;;;;;;31.05;17.08;;;;;;;13.65;100.00;100182.87;5589353;31;35109;-69
2023/10/14 02:13:53;;;;;;;32.47;17.33;;;;;;;13.63;100.00;100176.94;5589380;31;34413;-68
2023/10/14 02:16:56;;;;;;;28.95;16.75;;;;;;;13.67;100.00;100177.38;5589278;31;34343;-69
2023/10/14 02:20:09;;;;;;;33.88;17.48;;;;;;;13.64;100.00;100175.94;5588384;31;34308;-69
2023/10/14 02:23:13;;;;;;;33.80;17.60;;;;;;;13.51;100.00;100172.34;5589344;31;34476;-68
2023/10/14 02:26:25;;;;;;;30.15;17.60;;;;;;;13.34;100.00;100175.25;5589560;31;34335;-69
2023/10/14 02:29:28;;;;;;;27.25;17.25;;;;;;;13.51;100.00;100173.13;5589500;31;34449;-69
2023/10/14 02:32:31;;;;;;;33.45;17.05;;;;;;;13.46;100.00;100171.03;5575403;31;34291;-69
2023/10/14 02:35:34;;;;;;;32.03;17.15;;;;;;;13.53;100.00;100170.28;5589527;31;34609;-69
2023/10/14 02:38:37;;;;;;;31.48;17.73;;;;;;;13.53;100.00;100170.28;5589070;31;35060;-69
2023/10/14 02:41:44;;;;;;;32.35;18.00;;;;;;;13.45;100.00;100164.09;5589356;31;34235;-69
2023/10/14 02:44:52;;;;;;;33.05;17.73;;;;;;;13.33;100.00;100168.25;5588990;31;35021;-69
2023/10/14 02:48:01;;;;;;;;;;;;;;;13.21;100.00;100168.97;5589154;31;35107;-68
2023/10/14 02:51:06;;;;;;;35.08;18.90;;;;;;;13.08;100.00;100169.59;5589091;31;34820;-69
2023/10/14 02:54:26;;;;;;;33.22;18.58;;;;;;;12.97;100.00;100173.59;5589064;31;34564;-69
2023/10/14 02:57:29;;;;;;;32.60;18.60;;;;;;;12.92;100.00;100164.53;5588860;31;35052;-69
2023/10/14 03:00:33;;;;;;;33.10;19.92;;;;;;;12.88;100.00;100158.75;5588573;31;35244;-69
2023/10/14 03:03:35;;;;;;;34.85;19.37;;;;;;;13.03;100.00;100159.53;5588915;31;34391;-69
2023/10/14 03:06:49;;;;;;;33.67;19.58;;;;;;;13.02;100.00;100162.41;5588902;31;35329;-69
2023/10/14 03:09:52;;;;;;;32.58;19.20;;;;;;;12.95;100.00;100162.31;5576074;31;34412;-69
2023/10/14 03:12:57;;;;;;;30.20;19.08;;;;;;;12.84;100.00;100157.47;5588712;31;34417;-69
2023/10/14 03:16:01;;;;;;;36.40;19.30;;;;;;;12.76;100.00;100160.25;5588687;31;33858;-69
2023/10/14 03:19:04;;;;;;;38.13;19.58;;;;;;;12.71;100.00;100164.50;5588609;31;34574;-69
2023/10/14 03:22:07;;;;;;;35.55;19.45;;;;;;;12.67;100.00;100155.22;5588625;31;34387;-69
2023/10/14 03:25:10;;;;;;;33.03;20.67;;;;;;;12.62;100.00;100156.63;5588511;31;34538;-69
2023/10/14 03:28:20;;;;;;;33.63;19.42;;;;;;;12.58;100.00;100158.00;5588455;31;34950;-69
2023/10/14 03:31:25;;;;;;;;;;;;;;;12.56;100.00;100154.69;5588507;31;34236;-69
2023/10/14 03:34:31;;;;;;;34.17;20.30;;;;;;;12.50;100.00;100147.44;5588510;31;34669;-69
2023/10/14 03:37:40;;;;;;;35.97;19.70;;;;;;;12.45;100.00;100139.19;5588201;31;34561;-69
2023/10/14 03:47:03;;;;;;;38.42;19.90;;;;;;;12.38;100.00;100132.97;5587966;31;34356;-69
2023/10/14 03:50:06;;;;;;;35.15;20.55;;;;;;;12.37;100.00;100133.16;5587905;31;34928;-69
2023/10/14 03:53:12;;;;;;;37.22;20.70;;;;;;;12.33;100.00;100138.03;5588342;31;35029;-69
2023/10/14 03:56:15;;;;;;;48.05;21.42;;;;;;;12.30;100.00;100126.91;5588078;31;34885;-69
2023/10/14 03:59:23;;;;;;;39.20;21.85;;;;;;;12.30;100.00;100132.22;5588043;31;34277;-69
2023/10/14 04:02:27;;;;;;;36.42;21.48;;;;;;;12.36;100.00;100132.34;5588177;31;34291;-69
2023/10/14 04:05:30;;;;;;;37.97;21.05;;;;;;;12.40;100.00;100128.28;5587819;31;35027;-69
2023/10/14 04:08:39;;;;;;;32.95;21.27;;;;;;;12.37;100.00;100126.00;5587815;31;34237;-69
2023/10/14 04:11:43;;;;;;;37.30;20.23;;;;;;;12.34;100.00;100125.56;5587845;31;34550;-70
2023/10/14 04:14:45;;;;;;;35.92;20.90;;;;;;;12.35;100.00;100129.84;5587929;31;34098;-69
2023/10/14 04:17:52;;;;;;;35.38;21.30;;;;;;;12.32;100.00;100128.41;5587652;31;35046;-70
2023/10/14 04:25:07;;;;;;;37.25;21.80;;;;;;;12.30;100.00;100122.41;5583517;31;34155;-69
2023/10/14 04:31:00;;;;;;;32.35;20.40;;;;;;;12.63;100.00;100117.53;5587064;31;35170;-70
2023/10/14 04:34:05;;;;;;;38.92;21.35;;;;;;;12.52;100.00;100121.50;5587300;31;34386;-70
2023/10/14 04:37:08;;;;;;;37.85;20.37;;;;;;;12.40;100.00;100119.47;5587193;31;34278;-70
2023/10/14 04:40:15;;;;;;;40.80;21.73;;;;;;;12.32;100.00;100130.22;5587040;31;34959;-70
2023/10/14 04:43:37;;;;;;;34.72;20.98;;;;;;;12.29;100.00;100130.59;5589341;31;34277;-69
2023/10/14 04:46:46;;;;;;;37.70;21.90;;;;;;;12.32;100.00;100130.22;5589853;31;34940;-70
2023/10/14 04:49:52;;;;;;;38.20;21.73;;;;;;;12.26;100.00;100129.13;5590027;31;34390;-70
2023/10/14 04:52:57;;;;;;;35.58;21.23;;;;;;;12.18;100.00;100122.09;5589918;31;34528;-69
2023/10/14 04:56:04;;;;;;;35.95;21.62;;;;;;;12.19;100.00;100115.75;5575701;31;34327;-70
2023/10/14 04:59:07;;;;;;;37.33;22.15;;;;;;;12.22;100.00;100111.87;5589698;31;34885;-69
2023/10/14 05:02:15;;;;;;;36.85;21.95;;;;;;;12.39;100.00;100099.22;5590181;31;34993;-70
2023/10/14 05:05:19;;;;;;;44.03;22.98;;;;;;;12.32;100.00;100100.97;5576155;31;34523;-70
2023/10/14 05:08:44;;;;;;;33.22;21.90;;;;;;;12.25;100.00;100097.41;5589772;31;34316;-70
2023/10/14 05:11:47;;;;;;;35.38;22.40;;;;;;;12.20;100.00;100095.28;5589627;31;35220;-70
2023/10/14 05:14:52;;;;;;;39.53;23.15;;;;;;;12.20;100.00;100096.12;5589631;31;34579;-70
2023/10/14 05:18:01;;;;;;;38.20;22.67;;;;;;;12.25;100.00;100097.41;5589577;31;34338;-70
2023/10/14 05:21:12;;;;;;;33.10;22.40;;;;;;;12.29;100.00;100088.88;5589681;31;33656;-70
2023/10/14 05:24:15;;;;;;;43.80;22.50;;;;;;;12.25;100.00;100102.72;5589693;31;34299;-70
2023/10/14 05:27:19;;;;;;;32.10;21.02;;;;;;;12.22;100.00;100098.59;5589410;31;34256;-70
2023/10/14 05:30:24;;;;;;;39.30;22.30;;;;;;;12.24;100.00;100111.72;5589298;31;35055;-70
2023/10/14 05:33:27;;;;;;;38.90;21.12;;;;;;;12.24;100.00;100093.09;5589218;31;34340;-70
2023/10/14 05:36:32;;;;;;;33.47;21.73;;;;;;;12.28;100.00;100097.87;5589902;31;34346;-70
2023/10/14 05:39:37;;;;;;;37.13;21.27;;;;;;;12.34;100.00;100099.78;5589454;31;34275;-70
2023/10/14 05:42:47;;;;;;;40.20;21.87;;;;;;;12.40;100.00;100101.69;5589287;31;35117;-70
2023/10/14 05:45:54;;;;;;;35.40;22.25;;;;;;;12.47;100.00;100101.78;5589288;31;34656;-70
2023/10/14 05:48:57;;;;;;;35.47;21.52;;;;;;;12.54;100.00;100105.31;5589183;31;34450;-70
2023/10/14 05:52:00;;;;;;;36.70;21.90;;;;;;;12.63;100.00;100106.88;5589395;31;34584;-70
2023/10/14 05:55:05;;;;;;;37.78;21.55;;;;;;;12.68;100.00;100112.47;5588568;31;35116;-70
2023/10/14 05:58:08;;;;;;;39.25;22.60;;;;;;;12.74;100.00;100111.69;5589694;31;34257;-70
2023/10/14 06:01:13;;;;;;;35.50;21.42;;;;;;;12.85;100.00;100111.22;5575643;31;34986;-70
2023/10/14 06:04:17;;;;;;;37.58;21.60;;;;;;;12.93;100.00;100107.59;5589434;31;34390;-70
2023/10/14 06:07:19;;;;;;;38.08;20.70;;;;;;;13.02;100.00;100109.94;5589248;31;34984;-70
2023/10/14 06:10:23;;;;;;;37.25;21.80;;;;;;;13.10;100.00;100105.50;5589461;31;34411;-70
2023/10/14 06:13:27;;;;;;;28.58;20.27;;;;;;;13.15;100.00;100109.28;5589134;31;34268;-70
2023/10/14 06:16:31;;;;;;;35.30;21.95;;;;;;;13.24;100.00;100099.31;5589110;31;34405;-70
2023/10/14 06:19:38;;;;;;;38.92;21.48;;;;;;;13.28;100.00;100103.25;5589054;31;34398;-70
2023/10/14 06:22:43;;;;;;;32.63;21.25;;;;;;;13.38;100.00;100109.91;5589062;31;35230;-70
2023/10/14 06:25:46;;;;;;;44.13;22.25;;;;;;;13.44;100.00;100110.97;5589014;31;34502;-70
2023/10/14 06:28:50;;;;;;;37.35;21.55;;;;;;;13.52;100.00;100110.00;5589021;31;34436;-70
2023/10/14 06:31:53;;;;;;;35.42;21.58;;;;;;;13.57;100.00;100107.56;5575577;31;35051;-70
2023/10/14 06:35:14;;;;;;;37.75;22.48;;;;;;;13.63;100.00;100106.81;5589403;31;34232;-70
2023/10/14 06:38:17;;;;;;;40.00;21.98;;;;;;;13.73;100.00;100104.63;5588924;31;34301;-70
2023/10/14 06:41:23;;;;;;;36.47;21.98;;;;;;;13.82;100.00;100098.94;5588989;31;34966;-70
2023/10/14 06:44:29;;;;;;;41.95;21.83;;;;;;;13.87;100.00;100109.84;5588986;31;33812;-70
2023/10/14 06:47:32;;;;;;;40.85;22.40;;;;;;;13.94;100.00;100108.03;5588817;31;34272;-70
2023/10/14 06:50:41;;;;;;;39.45;22.13;;;;;;;14.07;100.00;100104.63;5588945;31;34343;-70
2023/10/14 06:53:44;;;;;;;37.38;20.90;;;;;;;14.17;100.00;100102.44;5575001;31;34463;-70
2023/10/14 06:56:47;;;;;;;40.50;22.33;;;;;;;14.39;100.00;100100.50;5588789;31;34276;-70
2023/10/14 06:59:51;;;;;;;40.58;21.60;;;;;;;14.48;100.00;100099.31;5588768;31;34537;-70
2023/10/14 07:02:54;;;;;;;32.83;20.95;;;;;;;14.82;100.00;100097.56;5574800;31;34217;-70
2023/10/14 07:05:58;;;;;;;34.75;20.08;;;;;;;14.94;100.00;100098.63;5588362;31;34921;-70
2023/10/14 07:09:07;;;;;;;39.72;21.80;;;;;;;15.08;100.00;100093.09;5588624;31;34427;-70
2023/10/14 07:12:13;;;;;;;33.00;20.87;;;;;;;14.98;100.00;100094.50;5588916;31;35092;-70
2023/10/14 07:15:19;;;;;;;34.95;21.60;;;;;;;15.05;100.00;100088.16;5588433;31;34199;-70
2023/10/14 07:18:23;;;;;;;33.50;21.27;;;;;;;15.18;100.00;100080.16;5588437;31;35065;-70
2023/10/14 07:21:26;;;;;;;33.53;22.05;;;;;;;15.39;100.00;100083.66;5588364;31;34416;-69
2023/10/14 07:24:30;;;;;;;37.13;20.52;;;;;;;15.56;100.00;100079.56;5588316;31;34272;-69
2023/10/14 07:27:35;;;;;;;36.17;20.75;;;;;;;15.77;100.00;100079.34;5588355;31;34304;-70
2023/10/14 07:30:45;;;;;;;37.13;20.62;;;;;;;15.92;100.00;100081.78;5588056;31;35114;-69
2023/10/14 07:33:49;;;;;;;34.45;20.30;;;;;;;16.59;100.00;100081.34;5587868;31;34297;-69
2023/10/14 07:36:53;;;;;;;36.90;20.30;;;;;;;17.09;100.00;100078.78;5588124;31;34397;-69
2023/10/14 07:39:56;;;;;;;30.92;19.00;;;;;;;17.27;100.00;100076.97;5574389;31;34281;-69
2023/10/14 07:43:10;;;;;;;30.10;18.80;;;;;;;18.49;100.00;100069.94;5588400;31;34375;-69
2023/10/14 07:46:13;;;;;;;33.33;17.77;;;;;;;20.24;100.00;100082.59;5587953;31;34512;-69
2023/10/14 07:49:18;;;;;;;31.10;17.58;;;;;;;20.16;100.00;100080.28;5587856;31;34541;-69
2023/10/14 07:52:21;;;;;;;27.70;17.20;;;;;;;20.20;100.00;100083.31;5587937;31;34316;-69
2023/10/14 07:55:26;;;;;;;28.60;16.98;;;;;;;20.73;100.00;100075.78;5574222;31;34346;-69
2023/10/14 07:58:31;;;;;;;28.52;16.80;;;;;;;22.17;100.00;100065.16;5588103;31;34302;-70
2023/10/14 08:01:38;;;;;;;30.65;16.10;;;;;;;22.41;100.00;100057.59;5588038;31;35164;-69
2023/10/14 08:04:45;;;;;;;25.95;15.93;;;;;;;24.15;86.50;100059.59;5587994;31;34456;-69
2023/10/14 08:07:49;;;;;;;25.67;16.17;;;;;;;23.60;89.75;100052.78;5587375;31;34484;-69
2023/10/14 08:10:52;;;;;;;27.10;16.40;;;;;;;22.87;90.50;100051.63;5586797;31;35089;-70
2023/10/14 08:13:56;;;;;;;23.42;15.77;;;;;;;23.31;92.42;100049.56;5587448;31;34382;-70
2023/10/14 08:16:59;;;;;;;25.35;15.40;;;;;;;24.13;81.30;100070.69;5574771;31;34559;-69
2023/10/14 08:20:12;;;;;;;27.42;16.00;;;;;;;24.61;76.39;100071.44;5590274;31;34988;-69
2023/10/14 08:23:15;;;;;;;31.67;16.65;;;;;;;23.59;81.04;100056.56;5589783;31;34319;-69
2023/10/14 08:26:18;;;;;;;27.23;16.70;;;;;;;21.53;100.00;100067.47;5576533;31;34187;-69
2023/10/14 08:29:21;;;;;;;31.75;16.87;;;;;;;21.18;100.00;100061.50;5576119;31;35046;-69
2023/10/14 08:32:24;;;;;;;31.00;17.87;;;;;;;20.58;100.00;100051.22;5589657;31;34416;-68
2023/10/14 08:35:29;;;;;;;33.00;18.15;;;;;;;19.82;100.00;100038.88;5589572;31;34431;-69
2023/10/14 08:38:33;;;;;;;28.70;18.67;;;;;;;19.40;100.00;100040.87;5576039;31;34932;-69
2023/10/14 08:41:37;;;;;;;28.50;19.12;;;;;;;19.12;100.00;100046.12;5575994;31;34960;-69
2023/10/14 08:44:44;;;;;;;27.65;18.05;;;;;;;19.27;100.00;100038.38;5590094;31;34454;-67
2023/10/14 08:47:50;;;;;;;32.10;19.60;;;;;;;19.02;100.00;100041.31;5589647;31;34480;-70
2023/10/14 08:50:56;;;;;;;32.80;19.48;;;;;;;19.03;100.00;100036.72;5589650;31;34833;-70
2023/10/14 08:54:06;;;;;;;32.92;19.92;;;;;;;19.01;100.00;100022.72;5589501;31;34670;-68
2023/10/14 08:57:09;;;;;;;32.92;19.65;;;;;;;18.87;100.00;100030.16;5576144;31;34357;-69
2023/10/14 09:00:19;;;;;;;35.10;20.05;;;;;;;18.93;100.00;100031.09;5589540;31;34969;-69
2023/10/14 09:03:24;;;;;;;35.58;19.77;;;;;;;19.04;100.00;100038.38;5589522;31;34472;-68
2023/10/14 09:06:28;;;;;;;31.35;19.87;;;;;;;19.15;100.00;100029.50;5589493;31;34281;-69
2023/10/14 09:09:32;;;;;;;35.67;19.75;;;;;;;19.38;100.00;100037.59;5576131;31;34364;-69
2023/10/14 09:12:36;;;;;;;33.58;19.33;;;;;;;19.45;100.00;100027.56;5563152;31;34993;-69
2023/10/14 09:15:41;;;;;;;35.70;19.37;;;;;;;19.31;100.00;100022.63;5589710;31;35029;-69
2023/10/14 09:18:57;;;;;;;30.80;19.77;;;;;;;19.37;100.00;100010.91;5589758;31;34415;-68
2023/10/14 09:22:01;;;;;;;33.15;19.27;;;;;;;19.51;100.00;100017.72;5589480;31;34397;-68
2023/10/14 09:25:05;;;;;;;35.95;19.30;;;;;;;19.52;100.00;100022.06;5589321;31;35026;-69
2023/10/14 09:28:09;;;;;;;39.53;19.25;;;;;;;19.64;100.00;100014.00;5588831;31;34558;-68
2023/10/14 09:31:12;;;;;;;31.27;19.55;;;;;;;19.67;100.00;100008.94;5575490;31;34255;-69
2023/10/14 09:34:24;;;;;;;31.77;19.05;;;;;;;19.77;100.00;100008.34;5589214;31;34740;-69
2023/10/14 09:37:28;;;;;;;29.70;18.58;;;;;;;19.72;100.00;100010.94;5575406;31;34334;-68
2023/10/14 09:40:32;;;;;;;30.02;18.75;;;;;;;19.87;100.00;100008.56;5588969;31;34408;-68
2023/10/14 09:43:42;;;;;;;29.30;19.00;;;;;;;20.04;100.00;100000.56;5575684;31;34344;-69
2023/10/14 09:46:46;;;;;;;32.05;18.48;;;;;;;20.01;100.00;100009.94;5589120;31;34437;-68
2023/10/14 09:49:52;;;;;;;31.73;17.95;;;;;;;20.11;100.00;100002.06;5589101;31;34362;-70
2023/10/14 09:52:57;;;;;;;34.15;18.80;;;;;;;20.10;100.00;100008.50;5589220;31;35047;-69
2023/10/14 09:56:04;;;;;;;27.15;16.55;;;;;;;20.26;100.00;100004.25;5589065;31;34560;-69
2023/10/14 09:59:10;;;;;;;32.20;17.33;;;;;;;20.41;100.00;99988.41;5589176;31;34452;-69
2023/10/14 10:02:15;;;;;;;25.10;16.40;;;;;;;20.48;100.00;99982.88;5588951;31;34217;-69
2023/10/14 10:05:26;;;;;;;25.95;16.75;;;;;;;20.71;100.00;99980.03;5589076;31;35727;-70
2023/10/14 10:08:29;;;;;;;28.35;15.98;;;;;;;20.78;100.00;99980.69;5589018;31;34983;-69
2023/10/14 10:11:35;;;;;;;34.58;16.35;;;;;;;20.66;100.00;99970.00;5588838;31;34329;-70
2023/10/14 10:14:42;;;;;;;34.75;15.27;;;;;;;20.80;100.00;99962.41;5589098;31;34297;-70
2023/10/14 10:18:04;;;;;;;30.98;16.83;;;;;;;21.04;100.00;99963.06;5588950;31;33574;-69
2023/10/14 10:21:07;;;;;;;28.38;16.60;;;;;;;21.12;100.00;99963.44;5588995;31;34281;-69
2023/10/14 10:24:17;;;;;;;27.45;16.12;;;;;;;21.01;100.00;99955.47;5575154;31;35338;-68
2023/10/14 10:27:20;;;;;;;29.00;16.92;;;;;;;21.10;100.00;99946.72;5588995;31;34255;-68
2023/10/14 10:30:25;;;;;;;34.40;16.40;;;;;;;21.09;100.00;99944.25;5588786;31;35007;-70
2023/10/14 10:33:59;;;;;;;26.35;16.02;;;;;;;21.17;100.00;99935.75;5588741;31;34599;-69
2023/10/14 10:37:04;;;;;;;24.50;15.32;;;;;;;21.39;100.00;99936.62;5589050;31;34236;-69
2023/10/14 10:40:11;;;;;;;29.20;16.55;;;;;;;21.62;100.00;99924.78;5574197;31;34500;-69
2023/10/14 10:43:15;;;;;;;31.12;15.93;;;;;;;21.55;100.00;99924.13;5588846;31;35233;-69
2023/10/14 10:46:38;;;;;;;23.35;14.38;;;;;;;21.76;100.00;99925.22;5588813;31;34384;-70
2023/10/14 10:50:01;;;;;;;22.62;13.48;;;;;;;22.02;100.00;99913.69;5588830;31;35010;-67
2023/10/14 10:53:07;;;;;;;22.02;13.65;;;;;;;22.06;100.00;99899.41;5575086;31;34345;-69
2023/10/14 10:56:13;;;;;;;20.42;13.07;;;;;;;22.41;98.72;99906.25;5588775;31;34541;-68
2023/10/14 10:59:16;;;;;;;20.90;12.05;;;;;;;25.06;77.39;99921.44;5574791;31;34620;-68
2023/10/14 11:02:20;;;;;;;20.67;11.43;;;;;;;27.58;62.14;99923.69;5588683;31;34286;-69
2023/10/14 11:05:25;;;;;;;18.90;11.85;;;;;;;28.45;56.25;99905.88;5588780;31;35362;-69
2023/10/14 11:08:28;;;;;;;23.80;11.35;;;;;;;31.54;47.93;99912.00;5588974;31;34334;-71
2023/10/14 11:11:33;;;;;;;20.35;10.25;;;;;;;32.82;41.50;99913.28;5588837;31;34998;-70
2023/10/14 11:14:36;;;;;;;24.87;10.00;;;;;;;31.53;42.28;99908.44;5574756;31;34339;-70
2023/10/14 11:17:39;;;;;;;17.75;10.05;;;;;;;33.05;41.79;99911.94;5588622;31;34303;-70
2023/10/14 11:20:45;;;;;;;23.02;10.00;;;;;;;32.01;40.75;99911.16;5574148;31;35377;-70
2023/10/14 11:23:52;;;;;;;19.90;9.68;;;;;;;32.12;40.91;99908.94;5588149;31;34622;-72
2023/10/14 11:26:55;;;;;;;12.65;9.27;;;;;;;32.99;39.52;99911.28;5575234;31;35074;-72
2023/10/14 11:29:58;;;;;;;14.52;8.88;;;;;;;35.00;35.25;99917.59;5588162;31;34357;-71
2023/10/14 11:33:02;;;;;;;14.45;8.98;;;;;;;35.89;34.74;99913.06;5588393;31;34569;-70
2023/10/14 11:36:05;;;;;;;20.60;9.35;;;;;;;33.94;36.68;99906.19;5588686;31;34337;-72
2023/10/14 11:39:13;;;;;;;13.50;8.73;;;;;;;33.85;37.49;99893.63;5588551;31;34505;-70
2023/10/14 11:42:17;;;;;;;16.67;8.97;;;;;;;34.29;35.96;99906.75;5588362;31;34255;-71
2023/10/14 11:45:20;;;;;;;13.77;8.93;;;;;;;35.19;34.14;99903.31;5574313;31;34262;-71
2023/10/14 11:48:30;;;;;;;13.10;8.40;;;;;;;35.57;33.45;99892.72;5587531;31;34366;-71
2023/10/14 11:51:37;;;;;;;18.25;8.55;;;;;;;34.12;35.19;99884.03;5589502;31;34316;-70
2023/10/14 11:54:41;;;;;;;14.95;8.70;;;;;;;32.75;37.16;99880.81;5590572;31;35187;-70
2023/10/14 11:57:45;;;;;;;17.90;8.20;;;;;;;35.40;34.33;99875.59;5590430;31;35210;-71
2023/10/14 12:00:49;;;;;;;19.35;8.95;;;;;;;33.31;36.81;99876.91;5590401;31;34382;-69
2023/10/14 12:03:52;;;;;;;18.20;9.18;;;;;;;36.78;31.13;99886.09;5590378;31;35028;-70
2023/10/14 12:06:55;;;;;;;20.25;9.93;;;;;;;35.66;32.27;99884.34;5590300;31;34336;-70
2023/10/14 12:09:59;;;;;;;16.73;8.07;;;;;;;37.58;29.62;99880.22;5590274;31;34125;-70
2023/10/14 12:13:03;;;;;;;17.33;8.63;;;;;;;39.18;28.31;99864.06;5590156;31;35062;-70
2023/10/14 12:16:07;;;;;;;17.17;9.23;;;;;;;38.19;28.53;99861.03;5590166;31;34984;-70
2023/10/14 12:19:14;;;;;;;21.50;9.30;;;;;;;30.78;39.23;99843.63;5590369;31;34299;-70
2023/10/14 12:22:21;;;;;;;17.05;8.93;;;;;;;29.88;41.88;99852.88;5590129;31;35242;-70
2023/10/14 12:25:24;;;;;;;15.70;8.65;;;;;;;29.13;43.68;99839.72;5576241;31;35080;-69
2023/10/14 12:28:33;;;;;;;16.05;9.27;;;;;;;27.01;49.56;99829.25;5589778;31;34309;-70
2023/10/14 12:31:43;;;;;;;17.60;8.88;;;;;;;26.65;51.34;99813.25;5576308;31;34568;-71
2023/10/14 12:34:50;;;;;;;17.05;11.00;;;;;;;26.32;55.09;99819.56;5589957;31;35073;-71
2023/10/14 12:37:56;;;;;;;22.15;12.02;;;;;;;26.08;55.10;99816.72;5590284;31;34982;-70
2023/10/14 12:41:02;;;;;;;24.20;10.13;;;;;;;25.72;57.71;99820.75;5589787;31;34683;-70
2023/10/14 12:44:08;;;;;;;15.57;10.18;;;;;;;25.21;60.37;99817.44;5575829;31;35016;-72
2023/10/14 12:47:18;;;;;;;18.20;9.57;;;;;;;25.35;60.59;99811.13;5589726;31;34319;-71
2023/10/14 12:50:21;;;;;;;20.73;10.27;;;;;;;25.66;62.35;99800.16;5589762;31;34241;-71
2023/10/14 12:53:24;;;;;;;21.65;10.48;;;;;;;25.26;62.57;99796.53;5589705;31;34404;-70
2023/10/14 12:56:27;;;;;;;19.90;10.15;;;;;;;25.03;64.44;99810.69;5589545;31;34942;-70
2023/10/14 12:59:32;;;;;;;19.10;10.52;;;;;;;24.73;65.70;99814.28;5589507;31;35036;-69
2023/10/14 13:02:34;;;;;;;16.98;10.55;;;;;;;24.76;66.81;99804.78;5588887;31;34412;-71
2023/10/14 13:05:38;;;;;;;17.92;10.50;;;;;;;24.49;69.43;99802.41;5575768;31;34714;-70
2023/10/14 13:08:41;;;;;;;19.40;10.02;;;;;;;24.41;69.64;99803.75;5589872;31;34247;-70
2023/10/14 13:11:44;;;;;;;19.80;9.85;;;;;;;24.25;71.78;99802.94;5575730;31;34904;-71
2023/10/14 13:14:48;;;;;;;16.27;10.65;;;;;;;24.25;73.30;99818.41;5589638;31;34470;-69
2023/10/14 13:17:56;;;;;;;19.58;11.32;;;;;;;24.15;68.75;99815.66;5589136;31;35015;-69
2023/10/14 13:20:59;;;;;;;18.00;10.80;;;;;;;24.09;68.09;99806.72;5589408;31;34978;-70
2023/10/14 13:24:05;;;;;;;21.73;11.05;;;;;;;23.96;71.76;99809.97;5588690;31;34386;-69
2023/10/14 13:27:08;;;;;;;25.58;12.52;;;;;;;24.12;70.95;99800.75;5575230;31;34297;-71
2023/10/14 13:30:16;;;;;;;17.33;10.20;;;;;;;24.16;70.05;99799.12;5589127;31;34468;-69
2023/10/14 13:33:18;;;;;;;16.35;10.10;;;;;;;23.99;70.50;99795.87;5588988;31;34275;-70
2023/10/14 13:36:22;;;;;;;18.25;9.93;;;;;;;23.85;69.98;99792.06;5589094;31;34226;-70
2023/10/14 13:39:25;;;;;;;20.33;10.45;;;;;;;24.17;74.68;99798.06;5575134;31;34927;-70
2023/10/14 13:42:28;;;;;;;18.67;10.27;;;;;;;24.20;71.16;99794.00;5588727;31;34389;-69
2023/10/14 13:45:32;;;;;;;18.42;10.23;;;;;;;24.15;72.82;99783.12;5589043;31;35832;-69
2023/10/14 13:48:35;;;;;;;19.00;9.57;;;;;;;24.06;75.56;99787.47;5589011;31;34787;-70
2023/10/14 13:51:40;;;;;;;23.52;10.85;;;;;;;23.87;75.04;99780.97;5588767;31;34951;-69
2023/10/14 13:54:44;;;;;;;29.35;10.65;;;;;;;23.68;70.88;99781.44;5589018;31;34372;-69
2023/10/14 13:57:46;;;;;;;19.90;10.18;;;;;;;23.61;71.46;99780.91;5589005;31;34756;-69
2023/10/14 14:00:50;;;;;;;14.45;9.25;;;;;;;23.60;72.43;99779.28;5589028;31;34417;-69
2023/10/14 14:04:00;;;;;;;27.62;9.93;;;;;;;23.55;69.91;99779.25;5588847;31;34327;-70
2023/10/14 14:07:06;;;;;;;21.58;9.57;;;;;;;23.36;80.00;99768.09;5588516;31;35015;-70
2023/10/14 14:10:14;;;;;;;34.10;10.75;;;;;;;23.33;73.54;99776.72;5588859;31;34933;-70
2023/10/14 14:13:17;;;;;;;21.98;10.48;;;;;;;23.22;82.09;99776.97;5574193;31;34404;-70
2023/10/14 14:16:20;;;;;;;25.55;10.50;;;;;;;23.15;79.28;99770.97;5586844;31;34736;-69
2023/10/14 14:19:23;;;;;;;25.75;10.63;;;;;;;23.10;77.11;99768.25;5588593;31;35048;-68
2023/10/14 14:22:26;;;;;;;21.73;9.98;;;;;;;23.13;76.96;99765.03;5574682;31;35502;-70
2023/10/14 14:25:30;;;;;;;17.65;10.02;;;;;;;23.13;75.11;99757.72;5588348;31;34380;-69